Time;durP1;ratioP1;P1;durP2;ratioP2;P2;SDS_P1;SDS_P2;PMS_P1;PMS_P2;Temp;Humidity;BMP_temperature;BMP_pressure;BME280_temperature;BME280_humidity;BME280_pressure;Samples;Min_cycle;Max_cycle;Signal;HPM_P1;HPM_P2
2021/12/30 00:02:08;;;;;;;0.97;0.60;;;;;;;14.47;76.04;96471.69;5073020;28;20181;-67
2021/12/30 00:04:34;;;;;;;1.57;0.60;;;;;;;14.20;76.64;96468.06;5073190;28;20255;-68
2021/12/30 00:07:00;;;;;;;0.97;0.63;;;;;;;14.27;76.32;96467.09;5070209;28;20216;-68
2021/12/30 00:09:28;;;;;;;1.37;0.63;;;;;;;14.13;76.15;96471.47;5072756;28;20235;-68
2021/12/30 00:11:55;;;;;;;1.40;0.50;;;;;;;13.98;76.20;96481.31;5072944;28;20183;-67
2021/12/30 00:14:20;;;;;;;5.53;0.90;;;;;;;14.03;75.55;96486.00;5072684;28;20452;-67
2021/12/30 00:16:46;;;;;;;3.00;0.80;;;;;;;14.07;75.16;96492.50;5072906;28;20841;-67
2021/12/30 00:19:12;;;;;;;1.20;0.63;;;;;;;14.09;74.72;96488.69;5066121;28;20824;-67
2021/12/30 00:21:39;;;;;;;1.27;0.60;;;;;;;14.37;74.17;96500.19;5070719;28;20267;-67
2021/12/30 00:24:05;;;;;;;1.83;0.70;;;;;;;14.43;73.44;96502.88;5071951;28;20505;-66
2021/12/30 00:26:31;;;;;;;2.17;0.90;;;;;;;14.38;73.38;96504.47;5073171;28;20448;-66
2021/12/30 00:28:56;;;;;;;2.00;0.70;;;;;;;14.27;73.29;96514.53;5072502;28;20515;-66
2021/12/30 00:31:22;;;;;;;1.20;0.73;;;;;;;14.39;72.85;96521.91;5072641;28;20269;-68
2021/12/30 00:33:48;;;;;;;3.57;0.80;;;;;;;14.21;73.66;96520.59;5072323;28;20555;-69
2021/12/30 00:36:13;;;;;;;1.90;0.80;;;;;;;14.28;73.14;96537.25;5070161;28;20244;-69
2021/12/30 00:38:41;;;;;;;1.20;0.80;;;;;;;14.32;73.13;96535.03;5072372;28;20228;-67
2021/12/30 00:41:10;;;;;;;1.47;0.87;;;;;;;14.33;72.43;96533.22;5072219;28;20189;-67
2021/12/30 00:43:36;;;;;;;1.30;0.70;;;;;;;14.30;72.62;96534.44;5072119;28;20421;-67
2021/12/30 00:46:02;;;;;;;2.80;0.80;;;;;;;14.41;72.40;96533.91;5072054;28;20452;-66
2021/12/30 00:48:27;;;;;;;1.77;0.90;;;;;;;14.45;72.26;96529.06;5071747;28;20468;-67
2021/12/30 00:50:53;;;;;;;1.43;0.90;;;;;;;14.41;71.91;96533.06;5071529;28;20471;-66
2021/12/30 00:53:19;;;;;;;1.73;0.70;;;;;;;14.00;73.48;96533.78;5071776;28;20198;-66
2021/12/30 00:55:45;;;;;;;1.10;0.80;;;;;;;14.26;72.59;96531.34;5063678;28;20239;-69
2021/12/30 00:58:12;;;;;;;2.47;0.70;;;;;;;14.24;72.43;96535.19;5067696;28;20229;-68
2021/12/30 01:00:40;;;;;;;1.20;0.80;;;;;;;14.07;73.24;96547.84;5065544;28;20794;-68
2021/12/30 01:03:07;;;;;;;3.13;0.70;;;;;;;13.95;73.55;96537.81;5071763;28;20451;-67
2021/12/30 01:05:32;;;;;;;2.30;0.70;;;;;;;14.11;72.92;96538.56;5071368;28;20508;-69
2021/12/30 01:07:58;;;;;;;1.50;0.97;;;;;;;14.11;72.68;96551.75;5069413;28;20864;-66
2021/12/30 01:10:25;;;;;;;1.83;0.80;;;;;;;14.28;71.85;96550.44;5071342;28;20193;-66
2021/12/30 01:12:53;;;;;;;0.90;0.70;;;;;;;14.42;71.36;96558.44;5071325;28;20644;-68
2021/12/30 01:15:21;;;;;;;1.77;0.90;;;;;;;14.14;72.32;96564.50;5071398;28;20548;-68
2021/12/30 01:18:20;;;;;;;2.40;0.90;;;;;;;14.41;70.64;96567.34;5071355;28;20448;-67
2021/12/30 01:20:38;;;;;;;2.20;0.90;;;;;;;14.52;70.62;96568.66;5071030;28;20463;-67
2021/12/30 01:23:04;;;;;;;1.53;0.87;;;;;;;14.46;70.40;96570.22;5068353;28;20428;-68
2021/12/30 01:25:30;;;;;;;1.10;0.70;;;;;;;14.09;71.76;96566.91;5071515;28;20183;-66
2021/12/30 01:27:55;;;;;;;3.00;0.73;;;;;;;14.27;71.02;96582.25;5071627;28;20270;-68
2021/12/30 01:30:21;;;;;;;1.90;0.90;;;;;;;14.21;71.21;96589.09;5073523;28;20641;-68
2021/12/30 01:32:46;;;;;;;0.90;0.70;;;;;;;14.41;70.33;96583.16;5072669;28;20183;-68
2021/12/30 01:35:15;;;;;;;1.63;1.13;;;;;;;14.28;70.38;96587.31;5055685;28;20289;-67
2021/12/30 01:37:41;;;;;;;2.70;1.00;;;;;;;14.27;70.15;96592.78;5069996;28;20398;-66
2021/12/30 01:40:11;;;;;;;3.23;0.73;;;;;;;14.21;69.97;96583.84;5070072;28;20528;-67
2021/12/30 01:42:37;;;;;;;2.87;1.00;;;;;;;14.25;70.21;96589.53;5072018;28;20589;-69
2021/12/30 01:45:04;;;;;;;1.10;0.73;;;;;;;14.50;68.99;96603.09;5071239;28;20416;-67
2021/12/30 01:47:30;;;;;;;1.50;1.00;;;;;;;14.68;68.35;96607.91;5071527;28;20222;-67
2021/12/30 01:49:55;;;;;;;1.73;0.87;;;;;;;14.03;70.85;96623.81;5071221;28;20416;-67
2021/12/30 01:52:21;;;;;;;2.10;1.27;;;;;;;14.46;69.03;96624.75;5071553;28;20199;-67
2021/12/30 01:54:47;;;;;;;4.00;1.30;;;;;;;14.34;69.13;96629.75;5071172;28;20290;-67
2021/12/30 01:57:13;;;;;;;2.53;1.03;;;;;;;14.43;68.77;96633.88;5067930;28;20190;-67
2021/12/30 01:59:38;;;;;;;2.27;0.90;;;;;;;14.13;69.84;96639.28;5070760;28;20428;-69
2021/12/30 02:02:04;;;;;;;0.97;0.70;;;;;;;14.08;70.01;96634.59;5071361;28;20675;-66
2021/12/30 02:04:30;;;;;;;2.00;0.90;;;;;;;14.24;69.39;96641.41;5053487;28;20248;-67
2021/12/30 02:06:57;;;;;;;2.70;1.07;;;;;;;13.90;70.06;96648.19;5067579;28;20282;-67
2021/12/30 02:09:23;;;;;;;2.40;1.17;;;;;;;14.38;68.67;96652.06;5071223;28;20554;-68
2021/12/30 02:11:49;;;;;;;1.80;0.73;;;;;;;14.22;69.28;96653.97;5072160;28;20436;-68
2021/12/30 02:14:15;;;;;;;2.07;0.80;;;;;;;14.12;69.41;96662.19;5074974;28;20444;-68
2021/12/30 02:16:42;;;;;;;2.67;0.90;;;;;;;13.96;69.72;96665.91;5067026;28;20440;-68
2021/12/30 02:19:08;;;;;;;2.00;0.80;;;;;;;14.11;69.54;96660.56;5074798;28;20802;-68
2021/12/30 02:21:33;;;;;;;2.43;0.87;;;;;;;14.08;69.83;96674.09;5073661;28;20431;-68
2021/12/30 02:23:59;;;;;;;3.90;0.87;;;;;;;13.84;70.63;96672.66;5063214;28;20409;-67
2021/12/30 02:26:25;;;;;;;3.13;0.80;;;;;;;14.06;69.89;96670.84;5066733;28;20680;-68
2021/12/30 02:28:51;;;;;;;3.13;0.90;;;;;;;14.10;69.82;96674.75;5074519;28;20235;-69
2021/12/30 02:31:20;;;;;;;1.50;1.07;;;;;;;14.03;69.93;96680.94;5074418;28;20178;-67
2021/12/30 02:33:46;;;;;;;1.90;0.87;;;;;;;14.10;69.64;96682.66;5074812;28;20464;-67
2021/12/30 02:36:14;;;;;;;1.77;0.80;;;;;;;14.23;69.57;96689.03;5064442;28;20433;-67
2021/12/30 02:38:45;;;;;;;3.53;0.90;;;;;;;14.25;69.46;96693.13;5072056;28;20487;-68
2021/12/30 02:41:15;;;;;;;1.87;0.80;;;;;;;14.23;69.56;96692.50;5066999;28;20413;-68
2021/12/30 02:43:41;;;;;;;1.37;0.80;;;;;;;14.32;69.04;96697.66;5074815;28;20941;-67
2021/12/30 02:46:07;;;;;;;1.57;0.80;;;;;;;14.14;69.58;96698.88;5066188;28;21654;-68
2021/12/30 02:48:34;;;;;;;5.53;0.83;;;;;;;14.57;68.01;96693.63;5074302;28;20440;-67
2021/12/30 02:51:02;;;;;;;2.03;1.00;;;;;;;14.38;68.36;96702.16;5061240;28;20187;-68
2021/12/30 02:53:28;;;;;;;1.83;0.90;;;;;;;14.78;67.18;96701.72;5074503;28;20452;-67
2021/12/30 02:55:54;;;;;;;2.00;0.73;;;;;;;15.07;66.36;96699.88;5073852;28;20444;-68
2021/12/30 02:58:21;;;;;;;2.30;0.80;;;;;;;14.78;66.95;96709.63;5071495;28;20492;-68
2021/12/30 03:00:50;;;;;;;1.73;1.00;;;;;;;14.94;66.56;96708.53;5074020;28;20522;-66
2021/12/30 03:03:17;;;;;;;1.20;0.60;;;;;;;14.66;67.89;96718.03;5074337;28;20427;-68
2021/12/30 03:05:43;;;;;;;3.10;1.00;;;;;;;14.45;68.54;96718.88;5072917;28;20420;-69
2021/12/30 03:08:08;;;;;;;3.03;1.10;;;;;;;14.22;69.62;96726.94;5065916;28;20416;-68
2021/12/30 03:10:34;;;;;;;1.37;0.83;;;;;;;14.52;69.07;96727.63;5073831;28;20186;-70
2021/12/30 03:13:08;;;;;;;1.60;1.03;;;;;;;14.65;68.62;96720.84;5074179;28;20182;-67
2021/12/30 03:15:35;;;;;;;1.23;0.80;;;;;;;14.54;68.74;96725.63;5073765;28;20648;-66
2021/12/30 03:18:00;;;;;;;4.20;0.93;;;;;;;15.09;67.07;96727.72;5073782;28;20778;-69
2021/12/30 03:20:26;;;;;;;2.03;0.80;;;;;;;15.14;66.73;96732.44;5073474;28;20425;-67
2021/12/30 03:22:52;;;;;;;1.50;0.73;;;;;;;15.20;66.46;96729.00;5069889;28;20714;-68
2021/12/30 03:25:17;;;;;;;1.30;0.73;;;;;;;15.08;67.25;96731.38;5073592;28;20561;-67
2021/12/30 03:27:44;;;;;;;1.30;0.70;;;;;;;15.29;66.37;96727.03;5073338;28;20260;-69
2021/12/30 03:30:13;;;;;;;1.67;0.80;;;;;;;14.77;68.51;96740.47;5072941;28;20178;-67
2021/12/30 03:32:38;;;;;;;2.20;0.80;;;;;;;14.52;69.76;96743.47;5073632;28;20419;-67
2021/12/30 03:35:05;;;;;;;3.03;0.80;;;;;;;14.42;70.19;96740.31;5073084;28;20543;-68
2021/12/30 03:37:31;;;;;;;0.93;0.73;;;;;;;15.02;68.05;96747.97;5071241;28;20214;-66
2021/12/30 03:39:57;;;;;;;3.63;1.07;;;;;;;15.19;67.49;96749.31;5071668;28;20737;-67
2021/12/30 03:42:22;;;;;;;1.60;0.93;;;;;;;15.23;67.41;96752.38;5068652;28;20187;-68
2021/12/30 03:44:48;;;;;;;1.40;0.70;;;;;;;14.87;68.90;96762.03;5061672;28;20205;-70
2021/12/30 03:47:17;;;;;;;3.13;0.77;;;;;;;14.93;68.90;96765.78;5073088;28;20214;-69
2021/12/30 03:49:45;;;;;;;1.00;0.80;;;;;;;15.00;68.85;96761.34;5072852;28;20437;-67
2021/12/30 03:52:20;;;;;;;1.13;0.80;;;;;;;14.77;70.01;96764.19;5073127;28;20420;-67
2021/12/30 03:54:46;;;;;;;1.73;0.90;;;;;;;14.76;70.27;96756.50;5073136;28;20547;-67
2021/12/30 03:57:13;;;;;;;1.40;0.70;;;;;;;14.87;70.05;96766.53;5069879;28;20432;-67
2021/12/30 03:59:38;;;;;;;2.00;0.97;;;;;;;14.77;70.67;96776.59;5071292;28;20439;-68
2021/12/30 04:02:04;;;;;;;2.53;0.93;;;;;;;14.90;70.17;96763.50;5072893;28;20916;-69
2021/12/30 04:04:30;;;;;;;1.20;0.70;;;;;;;14.97;70.09;96771.47;5081196;28;20198;-68
2021/12/30 04:06:55;;;;;;;2.53;0.80;;;;;;;14.76;71.15;96774.94;5080054;28;20217;-69
2021/12/30 04:09:21;;;;;;;2.90;1.03;;;;;;;14.83;71.35;96774.00;5081699;28;20420;-67
2021/12/30 04:11:47;;;;;;;1.40;0.90;;;;;;;14.93;71.06;96776.34;5084614;28;20244;-67
2021/12/30 04:14:12;;;;;;;4.57;1.13;;;;;;;15.04;70.74;96782.88;5063751;28;20304;-66
2021/12/30 04:16:38;;;;;;;1.57;1.10;;;;;;;14.63;72.73;96772.97;5072706;28;20229;-69
2021/12/30 04:19:04;;;;;;;1.00;0.70;;;;;;;14.71;72.42;96776.31;5062508;28;20198;-68
2021/12/30 04:21:30;;;;;;;1.20;0.90;;;;;;;14.68;72.65;96783.81;5071925;28;20195;-67
2021/12/30 04:23:56;;;;;;;30.07;14.40;;;;;;;14.81;72.47;96783.09;5070390;28;20482;-67
2021/12/30 04:26:22;;;;;;;2.37;1.20;;;;;;;14.87;72.10;96788.44;5072692;28;20208;-68
2021/12/30 04:28:48;;;;;;;1.03;0.70;;;;;;;14.67;73.05;96792.69;5072551;28;20456;-67
2021/12/30 04:31:14;;;;;;;1.80;0.73;;;;;;;14.09;75.20;96788.25;5072542;28;20508;-68
2021/12/30 04:33:40;;;;;;;2.40;0.90;;;;;;;14.55;74.00;96795.81;5072261;28;20540;-68
2021/12/30 04:36:06;;;;;;;3.33;0.70;;;;;;;14.42;75.00;96790.41;5069997;28;20461;-67
2021/12/30 04:38:33;;;;;;;1.63;0.70;;;;;;;14.64;74.18;96795.69;5072589;28;20501;-68
2021/12/30 04:40:59;;;;;;;4.30;1.00;;;;;;;14.56;74.62;96802.72;5072087;28;20477;-68
2021/12/30 04:43:25;;;;;;;1.60;1.10;;;;;;;14.42;75.75;96799.16;5063921;28;20428;-69
2021/12/30 04:45:51;;;;;;;1.63;0.80;;;;;;;14.44;75.82;96809.50;5071939;28;20424;-68
2021/12/30 04:48:17;;;;;;;5.27;2.60;;;;;;;14.64;75.35;96803.59;5063547;28;20187;-68
2021/12/30 04:50:45;;;;;;;1.87;1.10;;;;;;;14.61;74.93;96810.09;5058941;28;20433;-70
2021/12/30 04:53:12;;;;;;;0.90;0.70;;;;;;;14.73;74.81;96805.16;5053213;28;20926;-67
2021/12/30 04:55:38;;;;;;;1.27;1.17;;;;;;;14.78;74.33;96805.41;5056855;28;20487;-67
2021/12/30 04:58:04;;;;;;;2.53;1.60;;;;;;;14.86;74.16;96807.94;5049555;28;20417;-67
2021/12/30 05:00:31;;;;;;;1.77;0.70;;;;;;;14.85;74.32;96810.75;5051291;28;20548;-69
2021/12/30 05:05:46;;;;;;;4.70;0.67;;;;;;;14.92;73.94;96811.63;5051842;28;20423;-68
2021/12/30 05:08:16;;;;;;;1.67;0.50;;;;;;;14.75;74.49;96821.59;5051443;28;20752;-68
2021/12/30 05:10:42;;;;;;;0.90;0.70;;;;;;;14.48;75.56;96821.31;5051132;28;20943;-67
2021/12/30 05:13:09;;;;;;;1.27;0.67;;;;;;;14.78;74.74;96815.94;5051285;28;20417;-68
2021/12/30 05:15:35;;;;;;;0.90;0.60;;;;;;;14.83;74.35;96818.03;5049929;28;20179;-68
2021/12/30 05:18:01;;;;;;;1.00;0.70;;;;;;;14.51;75.45;96810.38;5051338;28;20517;-67
2021/12/30 05:20:27;;;;;;;1.17;0.53;;;;;;;14.48;75.62;96823.13;5051906;28;20425;-70
2021/12/30 05:22:53;;;;;;;1.27;0.60;;;;;;;14.65;74.92;96824.53;5062245;28;20554;-68
2021/12/30 05:25:19;;;;;;;1.00;0.70;;;;;;;14.61;75.04;96817.19;5051152;28;20409;-68
2021/12/30 05:27:45;;;;;;;1.00;0.50;;;;;;;14.27;76.91;96833.44;5051307;28;20198;-68
2021/12/30 05:30:12;;;;;;;0.90;0.50;;;;;;;13.83;78.99;96831.69;5050599;28;20421;-67
2021/12/30 05:32:39;;;;;;;1.47;0.70;;;;;;;14.23;77.67;96829.56;5050130;28;20410;-69
2021/12/30 05:35:06;;;;;;;0.90;0.50;;;;;;;14.19;77.84;96824.81;5050828;28;20568;-70
2021/12/30 05:37:32;;;;;;;0.80;0.50;;;;;;;14.06;78.86;96828.91;5051030;28;20437;-66
2021/12/30 05:39:58;;;;;;;0.90;0.50;;;;;;;13.80;79.55;96839.94;5050478;28;20445;-68
2021/12/30 05:42:24;;;;;;;0.90;0.70;;;;;;;14.07;78.16;96842.94;5051180;28;20181;-67
2021/12/30 05:44:51;;;;;;;0.90;0.60;;;;;;;13.66;80.22;96833.69;5050871;28;20418;-67
2021/12/30 05:47:16;;;;;;;2.20;0.60;;;;;;;14.14;77.87;96835.91;5058673;28;20219;-66
2021/12/30 05:49:42;;;;;;;2.20;0.60;;;;;;;14.40;76.81;96839.88;5050886;28;20428;-68
2021/12/30 05:52:07;;;;;;;1.60;0.67;;;;;;;14.21;78.37;96839.47;5050510;28;20644;-69
2021/12/30 05:54:33;;;;;;;0.83;0.60;;;;;;;14.10;78.29;96840.75;5050709;28;20195;-69
2021/12/30 05:56:59;;;;;;;1.57;0.60;;;;;;;13.93;78.76;96845.38;5047801;28;20222;-68
2021/12/30 05:59:24;;;;;;;0.80;0.60;;;;;;;14.28;78.04;96853.53;5050737;28;20293;-69
2021/12/30 06:01:50;;;;;;;1.00;0.50;;;;;;;14.21;77.71;96855.28;5050823;28;20268;-69
2021/12/30 06:04:15;;;;;;;1.23;0.57;;;;;;;13.76;79.94;96855.28;5050895;28;20174;-66
2021/12/30 06:06:41;;;;;;;1.17;0.70;;;;;;;14.12;78.38;96861.63;5050865;28;20222;-67
2021/12/30 06:09:07;;;;;;;0.90;0.60;;;;;;;13.97;79.89;96866.91;5058518;28;20187;-67
2021/12/30 06:11:32;;;;;;;1.40;0.80;;;;;;;13.99;79.92;96864.91;5050552;28;20294;-69
2021/12/30 06:13:58;;;;;;;2.70;0.60;;;;;;;13.98;79.92;96864.13;5058740;28;20214;-67
2021/12/30 06:16:23;;;;;;;1.00;0.50;;;;;;;14.36;78.27;96875.53;5050648;28;20209;-68
2021/12/30 06:18:49;;;;;;;1.30;0.60;;;;;;;14.39;78.31;96869.88;5049582;28;20179;-69
2021/12/30 06:21:15;;;;;;;0.90;0.70;;;;;;;14.12;79.83;96877.44;5051149;28;20179;-70
2021/12/30 06:23:40;;;;;;;0.80;0.60;;;;;;;14.05;80.34;96873.91;5053714;28;20722;-67
2021/12/30 06:26:06;;;;;;;2.20;0.93;;;;;;;13.91;80.38;96878.19;5050449;28;20281;-68
2021/12/30 06:28:31;;;;;;;2.17;1.33;;;;;;;13.69;81.55;96875.44;5050727;28;20179;-67
2021/12/30 06:30:57;;;;;;;1.97;1.23;;;;;;;14.21;80.25;96878.16;5066751;28;20190;-67
2021/12/30 06:33:22;;;;;;;3.23;1.70;;;;;;;13.78;81.49;96886.69;5050523;28;20171;-66
2021/12/30 06:35:48;;;;;;;1.93;1.30;;;;;;;14.17;79.84;96885.63;5050507;28;20174;-68
2021/12/30 06:38:13;;;;;;;1.20;1.00;;;;;;;14.20;80.33;96882.63;5050563;28;20266;-68
2021/12/30 06:40:39;;;;;;;1.97;0.70;;;;;;;14.33;79.16;96881.97;5050417;28;20175;-66
2021/12/30 06:43:05;;;;;;;1.40;0.73;;;;;;;13.85;81.46;96892.06;5050730;28;20187;-67
2021/12/30 06:45:30;;;;;;;3.47;0.70;;;;;;;13.67;82.96;96899.31;5050804;28;20617;-67
2021/12/30 06:47:56;;;;;;;1.73;0.70;;;;;;;14.37;79.54;96898.22;5050160;28;20261;-67
2021/12/30 06:50:24;;;;;;;8.23;0.70;;;;;;;14.06;80.75;96904.53;5049796;28;20873;-68
2021/12/30 06:52:50;;;;;;;2.23;0.70;;;;;;;13.84;82.37;96912.34;5048507;28;20207;-68
2021/12/30 06:55:16;;;;;;;2.13;0.97;;;;;;;13.96;81.83;96907.44;5063552;28;20893;-67
2021/12/30 06:57:42;;;;;;;0.80;0.60;;;;;;;14.09;80.84;96917.34;5051749;28;20677;-67
2021/12/30 07:00:10;;;;;;;5.07;0.50;;;;;;;14.33;80.14;96921.50;5062222;28;20432;-67
2021/12/30 07:02:35;;;;;;;1.00;0.70;;;;;;;14.10;80.61;96919.78;5075308;28;20426;-70
2021/12/30 07:05:01;;;;;;;1.40;1.10;;;;;;;14.59;79.03;96920.19;5074675;28;20499;-67
2021/12/30 07:07:27;;;;;;;2.70;1.43;;;;;;;14.15;81.33;96931.63;5069158;28;20277;-68
2021/12/30 07:09:52;;;;;;;2.93;0.63;;;;;;;14.01;82.18;96931.41;5071830;28;20491;-67
2021/12/30 07:12:18;;;;;;;1.10;0.73;;;;;;;14.29;79.80;96936.06;5074676;28;20178;-69
2021/12/30 07:14:43;;;;;;;1.20;0.67;;;;;;;14.57;78.90;96935.38;5066397;28;20241;-68
2021/12/30 07:17:09;;;;;;;1.00;0.67;;;;;;;14.46;79.88;96936.69;5072212;28;20194;-68
2021/12/30 07:19:35;;;;;;;1.13;0.60;;;;;;;14.16;81.75;96938.53;5072335;28;20182;-67
2021/12/30 07:22:00;;;;;;;1.00;0.60;;;;;;;14.34;80.39;96943.44;5070330;28;20695;-68
2021/12/30 07:24:26;;;;;;;1.00;0.70;;;;;;;14.38;81.10;96942.03;5074438;28;20185;-68
2021/12/30 07:26:53;;;;;;;2.20;0.60;;;;;;;13.89;83.11;96962.66;5073333;28;20285;-68
2021/12/30 07:29:19;;;;;;;1.50;0.70;;;;;;;13.96;83.16;96954.84;5066490;28;20170;-69
2021/12/30 07:31:45;;;;;;;1.73;0.63;;;;;;;13.93;82.17;96956.03;5072416;28;20428;-68
2021/12/30 07:34:11;;;;;;;3.33;0.90;;;;;;;13.90;82.97;96951.13;5055337;28;20459;-68
2021/12/30 07:36:36;;;;;;;0.90;0.80;;;;;;;14.03;83.30;96949.66;5055639;28;20256;-69
2021/12/30 07:39:03;;;;;;;2.50;1.20;;;;;;;13.91;84.23;96958.03;5071895;28;20641;-68
2021/12/30 07:41:28;;;;;;;2.23;0.80;;;;;;;14.17;83.13;96959.41;5073395;28;20712;-68
2021/12/30 07:43:54;;;;;;;1.53;1.43;;;;;;;13.73;84.41;96968.09;5072913;28;20428;-69
2021/12/30 07:46:20;;;;;;;1.20;1.10;;;;;;;14.09;82.83;96948.97;5071997;28;20210;-69
2021/12/30 07:48:45;;;;;;;1.43;0.90;;;;;;;14.27;82.47;96959.94;5071364;28;20179;-68
2021/12/30 07:51:11;;;;;;;0.90;0.80;;;;;;;13.72;85.30;96969.06;5072618;28;20170;-66
2021/12/30 07:53:37;;;;;;;2.83;1.17;;;;;;;14.00;83.99;96977.22;5072903;28;20202;-68
2021/12/30 07:56:03;;;;;;;1.10;1.00;;;;;;;14.33;82.60;96973.41;5071186;28;20247;-67
2021/12/30 07:58:29;;;;;;;1.03;0.70;;;;;;;14.05;83.49;96984.56;5064597;28;20460;-68
2021/12/30 08:00:55;;;;;;;1.00;0.80;;;;;;;14.26;82.57;96976.75;5069956;28;20421;-67
2021/12/30 08:03:21;;;;;;;1.20;0.70;;;;;;;14.24;82.29;96972.69;5073059;28;20421;-68
2021/12/30 08:05:48;;;;;;;0.90;0.70;;;;;;;14.50;81.56;96976.69;5064314;28;20413;-69
2021/12/30 08:08:14;;;;;;;1.70;0.80;;;;;;;14.15;82.58;96990.38;5056821;28;20188;-68
2021/12/30 08:10:39;;;;;;;2.60;0.87;;;;;;;14.28;82.66;96985.31;5071680;28;20511;-69
2021/12/30 08:13:05;;;;;;;1.77;1.03;;;;;;;14.18;82.91;96992.69;5070047;28;20200;-70
2021/12/30 08:15:30;;;;;;;1.60;0.90;;;;;;;14.32;81.66;96990.22;5058504;28;20206;-68
2021/12/30 08:17:56;;;;;;;1.30;0.80;;;;;;;14.64;80.07;96999.59;5072068;28;20218;-69
2021/12/30 08:20:22;;;;;;;6.33;0.77;;;;;;;14.08;83.20;97013.19;5071814;28;20178;-69
2021/12/30 08:22:48;;;;;;;3.33;0.70;;;;;;;14.46;81.78;96997.34;5069214;28;20320;-68
2021/12/30 08:25:14;;;;;;;1.43;0.80;;;;;;;15.01;78.95;96989.09;5064946;28;20170;-69
2021/12/30 08:27:41;;;;;;;0.93;0.83;;;;;;;14.95;78.27;96984.56;5064110;28;20444;-68
2021/12/30 08:30:09;;;;;;;0.97;0.77;;;;;;;15.04;78.61;96994.84;5064205;28;20501;-68
2021/12/30 08:32:35;;;;;;;1.83;0.90;;;;;;;14.85;79.15;96995.41;5072247;28;20775;-68
2021/12/30 08:35:01;;;;;;;0.87;0.73;;;;;;;14.47;80.44;96993.69;5071662;28;20478;-67
2021/12/30 08:37:27;;;;;;;2.37;0.80;;;;;;;14.84;79.75;96999.03;5071801;28;20198;-69
2021/12/30 08:39:52;;;;;;;4.20;0.80;;;;;;;15.15;78.20;96993.50;5070131;28;20178;-68
2021/12/30 08:42:23;;;;;;;1.30;0.93;;;;;;;14.98;78.27;96992.94;5070208;28;20205;-68
2021/12/30 08:44:53;;;;;;;2.60;0.90;;;;;;;14.43;80.39;96997.69;5066685;28;20202;-68
2021/12/30 08:47:19;;;;;;;1.87;0.90;;;;;;;14.97;78.74;97001.03;5071490;28;20974;-68
2021/12/30 08:49:46;;;;;;;1.00;0.83;;;;;;;15.19;77.29;97002.69;5071804;28;20412;-69
2021/12/30 08:52:18;;;;;;;1.10;1.00;;;;;;;14.76;79.75;97005.22;5067099;28;20172;-67
2021/12/30 08:54:44;;;;;;;2.60;1.50;;;;;;;15.25;77.27;97005.63;5066674;28;20456;-69
2021/12/30 08:57:10;;;;;;;2.03;1.20;;;;;;;15.14;77.58;97009.56;5068201;28;20433;-68
2021/12/30 08:59:36;;;;;;;2.07;1.20;;;;;;;15.17;77.10;97004.72;5063892;28;20915;-70
2021/12/30 09:02:04;;;;;;;1.57;0.90;;;;;;;15.37;76.63;96998.84;5070038;28;20292;-67
2021/12/30 09:04:30;;;;;;;1.57;1.37;;;;;;;15.56;75.55;96999.19;5070060;28;20175;-67
2021/12/30 09:06:55;;;;;;;1.37;1.00;;;;;;;15.53;75.40;97003.03;5070328;28;20444;-67
2021/12/30 09:09:21;;;;;;;2.20;0.83;;;;;;;15.59;75.49;97012.03;5070431;28;20175;-69
2021/12/30 09:11:47;;;;;;;1.03;0.80;;;;;;;15.64;75.03;97015.75;5073291;28;20299;-68
2021/12/30 09:14:15;;;;;;;1.50;0.80;;;;;;;15.70;75.05;97021.25;5055051;28;20224;-70
2021/12/30 09:16:41;;;;;;;0.90;0.80;;;;;;;15.78;74.72;97018.50;5071250;28;20208;-70
2021/12/30 09:19:06;;;;;;;0.80;0.70;;;;;;;15.84;74.77;97014.28;5071474;28;20416;-67
2021/12/30 09:21:32;;;;;;;1.10;0.97;;;;;;;15.84;74.54;97009.81;5060377;28;21001;-67
2021/12/30 09:23:58;;;;;;;1.00;0.70;;;;;;;15.65;74.95;97005.97;5068204;28;20185;-69
2021/12/30 09:26:23;;;;;;;1.00;0.90;;;;;;;16.06;73.98;97002.69;5066529;28;20274;-68
2021/12/30 09:28:49;;;;;;;4.40;0.70;;;;;;;15.80;75.01;96998.81;5060447;28;20662;-67
2021/12/30 09:31:15;;;;;;;1.43;0.90;;;;;;;16.16;74.00;96998.91;5070873;28;20257;-68
2021/12/30 09:33:41;;;;;;;0.90;0.70;;;;;;;16.34;73.23;97003.69;5071465;28;20543;-66
2021/12/30 09:36:06;;;;;;;1.07;0.97;;;;;;;16.20;73.47;97008.88;5062994;28;20244;-69
2021/12/30 09:38:32;;;;;;;0.90;0.70;;;;;;;16.08;73.45;97016.53;5071894;28;20178;-70
2021/12/30 09:40:57;;;;;;;1.87;0.70;;;;;;;16.34;72.71;97020.38;5070275;28;20189;-67
2021/12/30 09:43:23;;;;;;;1.10;0.70;;;;;;;16.31;72.54;97020.75;5051746;28;20657;-68
2021/12/30 09:45:50;;;;;;;2.40;1.13;;;;;;;16.52;71.62;97017.25;5067536;28;20251;-70
2021/12/30 09:48:17;;;;;;;1.73;0.90;;;;;;;16.49;72.19;97017.63;5071265;28;20191;-67
2021/12/30 09:50:49;;;;;;;1.10;0.70;;;;;;;16.42;72.60;97022.88;5069614;28;20772;-68
2021/12/30 09:53:18;;;;;;;0.90;0.50;;;;;;;16.56;71.96;97017.66;5070977;28;20887;-68
2021/12/30 09:55:44;;;;;;;1.93;0.70;;;;;;;16.67;71.48;97022.41;5070978;28;20473;-70
2021/12/30 09:58:09;;;;;;;0.93;0.60;;;;;;;16.63;71.50;97015.88;5060338;28;20417;-69
2021/12/30 10:00:36;;;;;;;2.50;0.70;;;;;;;16.81;70.84;97019.81;5065548;28;20697;-70
2021/12/30 10:03:01;;;;;;;1.23;0.70;;;;;;;16.86;71.07;97014.75;5071279;28;20186;-70
2021/12/30 10:05:30;;;;;;;1.10;0.83;;;;;;;16.96;70.50;97012.59;5063203;28;20421;-71
2021/12/30 10:08:19;;;;;;;1.07;0.80;;;;;;;16.94;70.06;97017.25;5066339;28;20199;-69
2021/12/30 10:10:47;;;;;;;1.67;0.80;;;;;;;16.86;70.39;97017.41;5071080;28;20417;-68
2021/12/30 10:13:15;;;;;;;3.10;1.90;;;;;;;16.72;70.71;97027.09;5054668;28;20477;-67
2021/12/30 10:15:42;;;;;;;3.90;1.50;;;;;;;16.62;71.05;97024.00;5070643;28;20486;-67
2021/12/30 10:18:07;;;;;;;1.93;1.20;;;;;;;16.71;71.32;97023.66;5069125;28;21221;-69
2021/12/30 10:20:34;;;;;;;1.17;0.80;;;;;;;15.91;73.47;97023.09;5070303;28;20511;-69
2021/12/30 10:23:11;;;;;;;1.00;0.70;;;;;;;16.35;72.33;97031.78;5067831;28;20182;-68
2021/12/30 10:25:39;;;;;;;1.63;0.90;;;;;;;16.73;70.92;97032.22;5065618;28;20507;-68
2021/12/30 10:28:36;;;;;;;1.10;0.80;;;;;;;16.71;70.49;97023.66;5068592;28;20459;-70
2021/12/30 10:31:10;;;;;;;1.17;0.90;;;;;;;16.89;70.23;97032.88;5068701;28;20424;-67
2021/12/30 10:33:37;;;;;;;2.60;2.13;;;;;;;16.48;71.71;97031.06;5072827;28;20506;-67
2021/12/30 10:36:20;;;;;;;1.10;0.70;;;;;;;16.73;70.66;97044.63;5070604;28;20459;-69
2021/12/30 10:38:46;;;;;;;2.80;1.90;;;;;;;16.71;70.98;97044.81;5071143;28;20420;-68
2021/12/30 10:41:12;;;;;;;2.60;1.10;;;;;;;16.83;70.53;97044.25;5074178;28;20412;-69
2021/12/30 10:43:45;;;;;;;2.30;0.93;;;;;;;16.55;71.33;97053.06;5074758;28;20572;-70
2021/12/30 10:46:22;;;;;;;1.80;0.93;;;;;;;16.77;70.49;97050.31;5065008;28;20289;-68
2021/12/30 10:48:54;;;;;;;1.67;1.57;;;;;;;16.81;70.48;97051.56;5073551;28;20464;-68
2021/12/30 10:51:28;;;;;;;1.60;0.90;;;;;;;17.15;69.39;97057.84;5074190;28;20507;-67
2021/12/30 10:53:55;;;;;;;4.03;1.57;;;;;;;17.10;69.36;97057.66;5073019;28;20500;-67
2021/12/30 10:56:22;;;;;;;1.00;0.90;;;;;;;17.21;68.67;97065.03;5066792;28;20440;-68
2021/12/30 10:58:48;;;;;;;1.20;0.70;;;;;;;16.56;70.25;97052.88;5063739;28;20421;-67
2021/12/30 11:01:15;;;;;;;1.20;0.90;;;;;;;17.04;69.49;97049.47;5074318;28;20562;-67
2021/12/30 11:03:42;;;;;;;1.00;0.60;;;;;;;17.16;68.71;97054.19;5073575;28;20182;-66
2021/12/30 11:06:19;;;;;;;1.50;0.70;;;;;;;16.39;71.22;97049.69;5073875;28;20987;-66
2021/12/30 11:08:47;;;;;;;1.10;0.70;;;;;;;17.03;69.14;97047.03;5074345;28;20771;-69
2021/12/30 11:11:23;;;;;;;0.80;0.60;;;;;;;17.02;70.05;97048.03;5056073;28;20413;-70
2021/12/30 11:14:05;;;;;;;0.80;0.57;;;;;;;16.89;69.24;97043.47;5072900;28;20852;-68
2021/12/30 11:16:32;;;;;;;2.70;0.80;;;;;;;16.81;69.80;97046.28;5072097;28;20448;-68
2021/12/30 11:18:58;;;;;;;5.33;0.80;;;;;;;17.26;68.07;97044.06;5073448;28;20432;-68
2021/12/30 11:21:40;;;;;;;1.00;0.60;;;;;;;17.47;67.71;97050.22;5073881;28;20557;-67
2021/12/30 11:24:06;;;;;;;0.90;0.60;;;;;;;17.92;66.13;97053.16;5062445;28;20422;-68
2021/12/30 11:26:32;;;;;;;0.90;0.70;;;;;;;17.73;67.01;97051.31;5067324;28;20433;-67
2021/12/30 11:29:00;;;;;;;0.90;0.50;;;;;;;16.87;68.96;97048.16;5064007;28;20467;-68
2021/12/30 11:31:25;;;;;;;0.90;0.70;;;;;;;17.49;67.01;97043.72;5073515;28;20535;-66
2021/12/30 11:33:51;;;;;;;1.20;0.73;;;;;;;17.66;66.51;97038.84;5072101;28;20453;-67
2021/12/30 11:36:17;;;;;;;2.50;0.70;;;;;;;17.76;65.66;97046.41;5064314;28;20190;-67